sensor_id;sensor_type;location;lat;lon;timestamp;P1;durP1;ratioP1;P2;durP2;ratioP2
846;SDS011;410;48.954;9.474;2024-03-23T00:54:47;9.00;;;8.10;;
846;SDS011;410;48.954;9.474;2024-03-23T00:56:49;9.90;;;7.60;;
846;SDS011;410;48.954;9.474;2024-03-23T00:58:51;13.93;;;8.40;;
846;SDS011;410;48.954;9.474;2024-03-23T01:00:56;9.37;;;8.37;;
846;SDS011;410;48.954;9.474;2024-03-23T01:02:58;9.10;;;7.53;;
846;SDS011;410;48.954;9.474;2024-03-23T01:05:00;14.30;;;8.53;;
846;SDS011;410;48.954;9.474;2024-03-23T01:07:01;17.40;;;8.70;;
846;SDS011;410;48.954;9.474;2024-03-23T01:09:04;10.30;;;8.20;;
846;SDS011;410;48.954;9.474;2024-03-23T01:11:06;28.57;;;8.47;;
846;SDS011;410;48.954;9.474;2024-03-23T01:13:08;15.70;;;8.20;;
846;SDS011;410;48.954;9.474;2024-03-23T01:15:10;14.90;;;8.83;;
846;SDS011;410;48.954;9.474;2024-03-23T01:17:13;10.83;;;7.80;;
846;SDS011;410;48.954;9.474;2024-03-23T01:19:14;13.43;;;7.73;;
846;SDS011;410;48.954;9.474;2024-03-23T01:21:17;13.70;;;8.17;;
846;SDS011;410;48.954;9.474;2024-03-23T01:23:18;12.13;;;7.90;;
846;SDS011;410;48.954;9.474;2024-03-23T01:25:20;11.10;;;8.67;;
846;SDS011;410;48.954;9.474;2024-03-23T01:27:23;11.13;;;8.50;;
846;SDS011;410;48.954;9.474;2024-03-23T01:29:26;8.30;;;7.50;;
846;SDS011;410;48.954;9.474;2024-03-23T01:31:28;9.87;;;7.37;;
846;SDS011;410;48.954;9.474;2024-03-23T01:33:30;12.40;;;8.47;;
846;SDS011;410;48.954;9.474;2024-03-23T01:35:32;10.23;;;8.23;;
846;SDS011;410;48.954;9.474;2024-03-23T01:37:33;11.70;;;7.90;;
846;SDS011;410;48.954;9.474;2024-03-23T01:39:36;13.90;;;8.40;;
846;SDS011;410;48.954;9.474;2024-03-23T01:41:38;9.33;;;7.30;;
846;SDS011;410;48.954;9.474;2024-03-23T01:43:44;9.70;;;7.93;;
846;SDS011;410;48.954;9.474;2024-03-23T01:45:46;8.50;;;7.53;;
846;SDS011;410;48.954;9.474;2024-03-23T01:47:48;8.70;;;7.80;;
846;SDS011;410;48.954;9.474;2024-03-23T01:49:49;9.13;;;8.03;;
846;SDS011;410;48.954;9.474;2024-03-23T01:51:52;11.47;;;8.63;;
846;SDS011;410;48.954;9.474;2024-03-23T01:53:55;11.20;;;7.77;;
846;SDS011;410;48.954;9.474;2024-03-23T01:55:58;9.40;;;8.30;;
846;SDS011;410;48.954;9.474;2024-03-23T01:58:02;9.20;;;7.30;;
846;SDS011;410;48.954;9.474;2024-03-23T02:00:07;10.70;;;8.47;;
846;SDS011;410;48.954;9.474;2024-03-23T02:02:15;11.20;;;7.97;;
846;SDS011;410;48.954;9.474;2024-03-23T02:04:20;9.53;;;8.53;;
846;SDS011;410;48.954;9.474;2024-03-23T02:06:21;9.70;;;7.63;;
846;SDS011;410;48.954;9.474;2024-03-23T02:08:24;10.73;;;8.77;;
846;SDS011;410;48.954;9.474;2024-03-23T02:10:26;10.73;;;8.40;;
846;SDS011;410;48.954;9.474;2024-03-23T02:12:28;9.93;;;7.70;;
846;SDS011;410;48.954;9.474;2024-03-23T02:14:29;9.80;;;6.80;;
846;SDS011;410;48.954;9.474;2024-03-23T02:16:34;10.70;;;7.40;;
846;SDS011;410;48.954;9.474;2024-03-23T02:18:36;9.20;;;7.20;;
846;SDS011;410;48.954;9.474;2024-03-23T02:20:40;10.33;;;7.20;;
846;SDS011;410;48.954;9.474;2024-03-23T02:22:41;8.13;;;7.00;;
846;SDS011;410;48.954;9.474;2024-03-23T02:24:45;9.27;;;7.57;;
846;SDS011;410;48.954;9.474;2024-03-23T02:26:46;10.67;;;7.07;;
846;SDS011;410;48.954;9.474;2024-03-23T02:28:49;8.00;;;7.20;;
846;SDS011;410;48.954;9.474;2024-03-23T02:30:50;8.80;;;6.80;;
846;SDS011;410;48.954;9.474;2024-03-23T02:32:53;8.47;;;7.10;;
846;SDS011;410;48.954;9.474;2024-03-23T02:34:54;9.27;;;7.13;;
846;SDS011;410;48.954;9.474;2024-03-23T02:36:57;7.93;;;7.13;;
846;SDS011;410;48.954;9.474;2024-03-23T02:38:59;9.70;;;7.47;;
846;SDS011;410;48.954;9.474;2024-03-23T02:41:04;11.53;;;8.10;;
846;SDS011;410;48.954;9.474;2024-03-23T02:43:05;9.50;;;7.40;;
846;SDS011;410;48.954;9.474;2024-03-23T02:45:09;8.80;;;6.63;;
846;SDS011;410;48.954;9.474;2024-03-23T02:47:10;10.00;;;7.40;;
846;SDS011;410;48.954;9.474;2024-03-23T02:49:13;9.50;;;7.47;;
846;SDS011;410;48.954;9.474;2024-03-23T02:51:15;9.73;;;7.57;;
846;SDS011;410;48.954;9.474;2024-03-23T02:53:17;12.77;;;7.27;;
846;SDS011;410;48.954;9.474;2024-03-23T02:55:19;9.07;;;7.37;;
846;SDS011;410;48.954;9.474;2024-03-23T02:57:23;9.27;;;7.63;;
846;SDS011;410;48.954;9.474;2024-03-23T02:59:24;8.40;;;6.83;;
846;SDS011;410;48.954;9.474;2024-03-23T03:01:26;6.93;;;6.23;;
846;SDS011;410;48.954;9.474;2024-03-23T03:03:28;8.60;;;6.80;;
846;SDS011;410;48.954;9.474;2024-03-23T03:05:30;9.00;;;7.30;;
846;SDS011;410;48.954;9.474;2024-03-23T03:07:31;9.10;;;7.00;;
846;SDS011;410;48.954;9.474;2024-03-23T03:09:34;9.20;;;7.03;;
846;SDS011;410;48.954;9.474;2024-03-23T03:11:36;9.13;;;6.90;;
846;SDS011;410;48.954;9.474;2024-03-23T03:13:39;9.10;;;6.80;;
846;SDS011;410;48.954;9.474;2024-03-23T03:15:41;8.77;;;7.63;;
846;SDS011;410;48.954;9.474;2024-03-23T03:17:44;8.20;;;7.20;;
846;SDS011;410;48.954;9.474;2024-03-23T03:19:46;8.50;;;7.10;;
846;SDS011;410;48.954;9.474;2024-03-23T03:21:48;8.07;;;7.23;;
846;SDS011;410;48.954;9.474;2024-03-23T03:23:50;9.20;;;7.50;;
846;SDS011;410;48.954;9.474;2024-03-23T03:25:52;7.90;;;6.63;;
846;SDS011;410;48.954;9.474;2024-03-23T03:27:54;8.77;;;6.90;;
846;SDS011;410;48.954;9.474;2024-03-23T03:29:58;9.93;;;7.33;;
846;SDS011;410;48.954;9.474;2024-03-23T03:32:02;7.93;;;7.10;;
846;SDS011;410;48.954;9.474;2024-03-23T03:34:04;9.30;;;7.40;;
846;SDS011;410;48.954;9.474;2024-03-23T03:36:05;8.33;;;7.50;;
846;SDS011;410;48.954;9.474;2024-03-23T03:38:08;8.27;;;7.40;;
846;SDS011;410;48.954;9.474;2024-03-23T03:40:11;8.20;;;7.40;;
846;SDS011;410;48.954;9.474;2024-03-23T03:42:15;10.33;;;6.73;;
846;SDS011;410;48.954;9.474;2024-03-23T03:44:16;8.40;;;6.87;;
846;SDS011;410;48.954;9.474;2024-03-23T03:46:20;9.53;;;6.63;;
846;SDS011;410;48.954;9.474;2024-03-23T03:48:22;8.17;;;7.00;;
846;SDS011;410;48.954;9.474;2024-03-23T03:50:24;11.10;;;7.97;;
846;SDS011;410;48.954;9.474;2024-03-23T03:52:26;8.73;;;7.40;;
846;SDS011;410;48.954;9.474;2024-03-23T03:54:28;12.60;;;8.03;;
846;SDS011;410;48.954;9.474;2024-03-23T03:56:29;8.03;;;7.07;;
846;SDS011;410;48.954;9.474;2024-03-23T03:58:30;9.40;;;6.97;;
846;SDS011;410;48.954;9.474;2024-03-23T04:00:33;8.53;;;6.60;;
846;SDS011;410;48.954;9.474;2024-03-23T04:02:35;7.67;;;6.33;;
846;SDS011;410;48.954;9.474;2024-03-23T04:04:37;8.03;;;6.20;;
846;SDS011;410;48.954;9.474;2024-03-23T04:06:39;11.10;;;7.37;;
846;SDS011;410;48.954;9.474;2024-03-23T04:08:42;10.97;;;8.60;;
846;SDS011;410;48.954;9.474;2024-03-23T04:10:43;9.27;;;8.10;;
846;SDS011;410;48.954;9.474;2024-03-23T04:12:46;7.83;;;6.63;;
846;SDS011;410;48.954;9.474;2024-03-23T04:14:48;8.83;;;6.60;;
846;SDS011;410;48.954;9.474;2024-03-23T04:16:50;7.57;;;6.77;;
846;SDS011;410;48.954;9.474;2024-03-23T04:18:53;10.37;;;7.10;;
846;SDS011;410;48.954;9.474;2024-03-23T04:20:55;10.10;;;8.10;;
846;SDS011;410;48.954;9.474;2024-03-23T04:22:57;9.00;;;7.33;;
846;SDS011;410;48.954;9.474;2024-03-23T04:24:59;9.63;;;7.20;;
846;SDS011;410;48.954;9.474;2024-03-23T04:27:00;7.10;;;6.27;;
846;SDS011;410;48.954;9.474;2024-03-23T04:29:03;7.80;;;7.00;;
846;SDS011;410;48.954;9.474;2024-03-23T04:31:05;9.13;;;6.77;;
846;SDS011;410;48.954;9.474;2024-03-23T04:33:08;9.02;;;6.63;;
846;SDS011;410;48.954;9.474;2024-03-23T04:35:10;13.20;;;9.10;;
846;SDS011;410;48.954;9.474;2024-03-23T04:37:13;9.47;;;7.50;;
846;SDS011;410;48.954;9.474;2024-03-23T04:39:17;9.63;;;7.70;;
846;SDS011;410;48.954;9.474;2024-03-23T04:41:20;9.90;;;7.00;;
846;SDS011;410;48.954;9.474;2024-03-23T04:43:22;8.70;;;6.70;;
846;SDS011;410;48.954;9.474;2024-03-23T04:45:24;11.47;;;7.60;;
846;SDS011;410;48.954;9.474;2024-03-23T04:47:26;8.10;;;7.10;;
846;SDS011;410;48.954;9.474;2024-03-23T04:49:29;10.40;;;8.67;;
846;SDS011;410;48.954;9.474;2024-03-23T04:51:36;12.20;;;9.50;;
846;SDS011;410;48.954;9.474;2024-03-23T04:53:39;11.43;;;9.53;;
846;SDS011;410;48.954;9.474;2024-03-23T04:55:40;12.80;;;9.30;;
846;SDS011;410;48.954;9.474;2024-03-23T04:57:43;12.53;;;9.50;;
846;SDS011;410;48.954;9.474;2024-03-23T04:59:45;11.67;;;10.17;;
846;SDS011;410;48.954;9.474;2024-03-23T05:01:48;12.73;;;10.50;;
846;SDS011;410;48.954;9.474;2024-03-23T05:03:50;14.70;;;9.80;;
846;SDS011;410;48.954;9.474;2024-03-23T05:05:53;13.90;;;9.77;;
846;SDS011;410;48.954;9.474;2024-03-23T05:07:56;15.27;;;10.53;;
846;SDS011;410;48.954;9.474;2024-03-23T05:09:58;15.40;;;11.07;;
846;SDS011;410;48.954;9.474;2024-03-23T05:12:00;14.30;;;10.60;;
846;SDS011;410;48.954;9.474;2024-03-23T05:14:02;14.90;;;11.30;;
846;SDS011;410;48.954;9.474;2024-03-23T05:16:04;15.47;;;11.43;;
846;SDS011;410;48.954;9.474;2024-03-23T05:18:06;18.73;;;12.60;;
846;SDS011;410;48.954;9.474;2024-03-23T05:20:08;15.93;;;11.83;;
846;SDS011;410;48.954;9.474;2024-03-23T05:22:13;18.53;;;13.50;;
846;SDS011;410;48.954;9.474;2024-03-23T05:24:16;17.33;;;12.80;;
846;SDS011;410;48.954;9.474;2024-03-23T05:26:18;16.67;;;12.63;;
846;SDS011;410;48.954;9.474;2024-03-23T05:28:20;16.93;;;12.60;;
846;SDS011;410;48.954;9.474;2024-03-23T05:30:22;18.87;;;13.07;;
846;SDS011;410;48.954;9.474;2024-03-23T05:32:24;17.10;;;13.27;;
846;SDS011;410;48.954;9.474;2024-03-23T05:34:27;17.67;;;13.20;;
846;SDS011;410;48.954;9.474;2024-03-23T05:36:29;18.10;;;13.10;;
846;SDS011;410;48.954;9.474;2024-03-23T05:38:33;16.17;;;12.83;;
846;SDS011;410;48.954;9.474;2024-03-23T05:40:36;18.13;;;13.70;;
846;SDS011;410;48.954;9.474;2024-03-23T05:42:42;18.17;;;13.07;;
846;SDS011;410;48.954;9.474;2024-03-23T05:44:43;21.60;;;14.30;;
846;SDS011;410;48.954;9.474;2024-03-23T05:46:46;18.80;;;13.87;;
846;SDS011;410;48.954;9.474;2024-03-23T05:48:51;20.53;;;14.27;;
846;SDS011;410;48.954;9.474;2024-03-23T05:51:00;19.10;;;14.30;;
846;SDS011;410;48.954;9.474;2024-03-23T05:53:02;22.87;;;14.60;;
846;SDS011;410;48.954;9.474;2024-03-23T05:55:06;19.37;;;14.30;;
846;SDS011;410;48.954;9.474;2024-03-23T05:57:10;19.70;;;14.57;;
846;SDS011;410;48.954;9.474;2024-03-23T05:59:12;22.80;;;14.20;;
846;SDS011;410;48.954;9.474;2024-03-23T06:01:14;19.57;;;14.47;;
846;SDS011;410;48.954;9.474;2024-03-23T06:03:16;19.37;;;13.47;;
846;SDS011;410;48.954;9.474;2024-03-23T06:05:17;18.47;;;13.77;;
846;SDS011;410;48.954;9.474;2024-03-23T06:07:19;17.20;;;12.27;;
846;SDS011;410;48.954;9.474;2024-03-23T06:09:21;17.40;;;11.50;;
846;SDS011;410;48.954;9.474;2024-03-23T06:11:23;13.13;;;10.50;;
846;SDS011;410;48.954;9.474;2024-03-23T06:13:26;16.00;;;10.40;;
846;SDS011;410;48.954;9.474;2024-03-23T06:15:30;18.37;;;10.70;;
846;SDS011;410;48.954;9.474;2024-03-23T06:17:32;13.70;;;10.10;;
846;SDS011;410;48.954;9.474;2024-03-23T06:19:35;14.93;;;10.53;;
846;SDS011;410;48.954;9.474;2024-03-23T06:21:36;13.80;;;9.73;;
846;SDS011;410;48.954;9.474;2024-03-23T06:23:37;12.37;;;8.97;;
846;SDS011;410;48.954;9.474;2024-03-23T06:25:40;14.00;;;9.03;;
846;SDS011;410;48.954;9.474;2024-03-23T06:27:41;14.33;;;9.27;;
846;SDS011;410;48.954;9.474;2024-03-23T06:29:45;11.97;;;8.30;;
846;SDS011;410;48.954;9.474;2024-03-23T06:31:52;12.07;;;8.23;;
846;SDS011;410;48.954;9.474;2024-03-23T06:33:55;11.57;;;7.97;;
846;SDS011;410;48.954;9.474;2024-03-23T06:35:56;9.60;;;7.03;;
846;SDS011;410;48.954;9.474;2024-03-23T06:37:58;11.40;;;6.37;;
846;SDS011;410;48.954;9.474;2024-03-23T06:39:59;9.33;;;6.97;;
846;SDS011;410;48.954;9.474;2024-03-23T06:42:02;10.20;;;6.13;;
846;SDS011;410;48.954;9.474;2024-03-23T06:44:03;12.03;;;6.30;;
846;SDS011;410;48.954;9.474;2024-03-23T06:46:07;8.63;;;5.73;;
846;SDS011;410;48.954;9.474;2024-03-23T06:48:08;8.30;;;4.97;;
846;SDS011;410;48.954;9.474;2024-03-23T06:50:11;7.90;;;5.77;;
846;SDS011;410;48.954;9.474;2024-03-23T06:52:12;8.33;;;5.40;;
846;SDS011;410;48.954;9.474;2024-03-23T06:54:14;8.23;;;5.07;;
846;SDS011;410;48.954;9.474;2024-03-23T06:56:17;7.10;;;4.87;;
846;SDS011;410;48.954;9.474;2024-03-23T06:58:19;7.40;;;4.67;;
846;SDS011;410;48.954;9.474;2024-03-23T07:00:21;6.13;;;4.40;;
846;SDS011;410;48.954;9.474;2024-03-23T07:02:25;6.20;;;3.90;;
846;SDS011;410;48.954;9.474;2024-03-23T07:04:26;5.17;;;3.37;;
846;SDS011;410;48.954;9.474;2024-03-23T07:06:29;5.50;;;3.10;;
846;SDS011;410;48.954;9.474;2024-03-23T07:08:30;5.50;;;3.03;;
846;SDS011;410;48.954;9.474;2024-03-23T07:10:33;3.33;;;2.30;;
846;SDS011;410;48.954;9.474;2024-03-23T07:12:36;4.23;;;2.80;;
846;SDS011;410;48.954;9.474;2024-03-23T07:14:38;5.07;;;3.23;;
846;SDS011;410;48.954;9.474;2024-03-23T07:16:39;4.33;;;2.80;;
846;SDS011;410;48.954;9.474;2024-03-23T07:18:43;5.47;;;3.07;;
846;SDS011;410;48.954;9.474;2024-03-23T07:20:51;5.17;;;2.30;;
846;SDS011;410;48.954;9.474;2024-03-23T07:22:55;4.77;;;2.50;;
846;SDS011;410;48.954;9.474;2024-03-23T07:24:56;4.03;;;2.50;;
846;SDS011;410;48.954;9.474;2024-03-23T07:26:58;2.90;;;1.90;;
846;SDS011;410;48.954;9.474;2024-03-23T07:29:00;2.27;;;1.60;;
846;SDS011;410;48.954;9.474;2024-03-23T07:31:03;2.30;;;1.70;;
846;SDS011;410;48.954;9.474;2024-03-23T07:33:05;2.00;;;1.30;;
846;SDS011;410;48.954;9.474;2024-03-23T07:35:09;2.60;;;1.90;;
846;SDS011;410;48.954;9.474;2024-03-23T07:37:10;2.60;;;1.77;;
846;SDS011;410;48.954;9.474;2024-03-23T07:39:12;2.83;;;2.00;;
846;SDS011;410;48.954;9.474;2024-03-23T07:41:14;2.33;;;1.70;;
846;SDS011;410;48.954;9.474;2024-03-23T07:43:18;2.50;;;1.87;;
846;SDS011;410;48.954;9.474;2024-03-23T07:45:19;3.33;;;1.60;;
846;SDS011;410;48.954;9.474;2024-03-23T07:47:20;2.70;;;1.73;;
846;SDS011;410;48.954;9.474;2024-03-23T07:49:23;2.97;;;1.70;;
846;SDS011;410;48.954;9.474;2024-03-23T07:51:28;2.27;;;1.60;;
846;SDS011;410;48.954;9.474;2024-03-23T07:53:31;2.20;;;1.57;;
846;SDS011;410;48.954;9.474;2024-03-23T07:55:33;2.50;;;1.70;;
846;SDS011;410;48.954;9.474;2024-03-23T07:57:35;2.63;;;1.80;;
846;SDS011;410;48.954;9.474;2024-03-23T07:59:37;2.50;;;2.10;;
846;SDS011;410;48.954;9.474;2024-03-23T08:01:39;2.77;;;1.90;;
846;SDS011;410;48.954;9.474;2024-03-23T08:03:41;2.40;;;1.60;;
846;SDS011;410;48.954;9.474;2024-03-23T08:05:45;3.27;;;1.50;;
846;SDS011;410;48.954;9.474;2024-03-23T08:07:51;7.70;;;1.80;;
846;SDS011;410;48.954;9.474;2024-03-23T08:09:53;3.93;;;2.33;;
846;SDS011;410;48.954;9.474;2024-03-23T08:11:56;2.50;;;1.57;;
846;SDS011;410;48.954;9.474;2024-03-23T08:13:58;4.00;;;3.17;;
846;SDS011;410;48.954;9.474;2024-03-23T08:16:00;4.40;;;1.77;;
846;SDS011;410;48.954;9.474;2024-03-23T08:18:04;2.70;;;1.70;;
846;SDS011;410;48.954;9.474;2024-03-23T08:20:06;2.57;;;1.63;;
846;SDS011;410;48.954;9.474;2024-03-23T08:22:10;2.70;;;1.73;;
846;SDS011;410;48.954;9.474;2024-03-23T08:24:13;3.00;;;1.60;;
846;SDS011;410;48.954;9.474;2024-03-23T08:26:16;3.17;;;1.80;;
846;SDS011;410;48.954;9.474;2024-03-23T08:28:18;2.03;;;1.30;;
846;SDS011;410;48.954;9.474;2024-03-23T08:30:20;2.13;;;1.20;;
846;SDS011;410;48.954;9.474;2024-03-23T08:32:22;1.77;;;1.00;;
846;SDS011;410;48.954;9.474;2024-03-23T08:34:24;2.13;;;1.10;;
846;SDS011;410;48.954;9.474;2024-03-23T08:36:26;2.00;;;0.80;;
846;SDS011;410;48.954;9.474;2024-03-23T08:38:29;1.73;;;0.90;;
846;SDS011;410;48.954;9.474;2024-03-23T08:40:32;3.43;;;1.47;;
846;SDS011;410;48.954;9.474;2024-03-23T08:42:34;1.43;;;0.77;;
846;SDS011;410;48.954;9.474;2024-03-23T08:44:36;2.97;;;0.90;;
846;SDS011;410;48.954;9.474;2024-03-23T08:46:38;1.40;;;0.90;;
846;SDS011;410;48.954;9.474;2024-03-23T08:48:40;4.60;;;0.97;;
846;SDS011;410;48.954;9.474;2024-03-23T08:50:44;1.87;;;0.93;;
846;SDS011;410;48.954;9.474;2024-03-23T08:52:45;2.40;;;1.80;;
846;SDS011;410;48.954;9.474;2024-03-23T08:54:48;2.40;;;1.30;;
846;SDS011;410;48.954;9.474;2024-03-23T08:56:50;1.43;;;0.80;;
846;SDS011;410;48.954;9.474;2024-03-23T08:58:53;1.60;;;1.00;;
846;SDS011;410;48.954;9.474;2024-03-23T09:00:54;1.80;;;1.20;;
846;SDS011;410;48.954;9.474;2024-03-23T09:02:58;2.53;;;1.40;;
846;SDS011;410;48.954;9.474;2024-03-23T09:04:59;1.73;;;0.90;;
846;SDS011;410;48.954;9.474;2024-03-23T09:07:04;3.17;;;1.80;;
846;SDS011;410;48.954;9.474;2024-03-23T09:09:06;2.50;;;1.90;;
846;SDS011;410;48.954;9.474;2024-03-23T09:11:11;3.57;;;2.10;;
846;SDS011;410;48.954;9.474;2024-03-23T09:13:14;4.93;;;1.90;;
846;SDS011;410;48.954;9.474;2024-03-23T09:15:17;2.83;;;2.20;;
846;SDS011;410;48.954;9.474;2024-03-23T09:17:18;6.43;;;2.53;;
846;SDS011;410;48.954;9.474;2024-03-23T09:19:20;5.80;;;2.70;;
846;SDS011;410;48.954;9.474;2024-03-23T09:21:22;2.60;;;1.80;;
846;SDS011;410;48.954;9.474;2024-03-23T09:23:24;4.90;;;2.30;;
846;SDS011;410;48.954;9.474;2024-03-23T09:25:25;5.83;;;2.97;;
846;SDS011;410;48.954;9.474;2024-03-23T09:27:28;4.33;;;2.33;;
846;SDS011;410;48.954;9.474;2024-03-23T09:29:30;3.80;;;2.27;;
846;SDS011;410;48.954;9.474;2024-03-23T09:31:32;4.53;;;2.53;;
846;SDS011;410;48.954;9.474;2024-03-23T09:33:34;4.10;;;2.27;;
846;SDS011;410;48.954;9.474;2024-03-23T09:35:37;5.50;;;3.30;;
846;SDS011;410;48.954;9.474;2024-03-23T09:37:38;10.40;;;5.03;;
846;SDS011;410;48.954;9.474;2024-03-23T09:39:41;11.30;;;5.33;;
846;SDS011;410;48.954;9.474;2024-03-23T09:41:42;6.73;;;3.47;;
846;SDS011;410;48.954;9.474;2024-03-23T09:43:44;4.70;;;2.70;;
846;SDS011;410;48.954;9.474;2024-03-23T09:45:50;5.90;;;2.90;;
846;SDS011;410;48.954;9.474;2024-03-23T09:47:52;5.20;;;2.90;;
846;SDS011;410;48.954;9.474;2024-03-23T09:49:54;10.33;;;5.30;;
846;SDS011;410;48.954;9.474;2024-03-23T09:51:56;7.90;;;4.03;;
846;SDS011;410;48.954;9.474;2024-03-23T09:53:57;4.93;;;3.00;;
846;SDS011;410;48.954;9.474;2024-03-23T09:56:00;4.60;;;2.77;;
846;SDS011;410;48.954;9.474;2024-03-23T09:58:01;6.53;;;3.07;;
846;SDS011;410;48.954;9.474;2024-03-23T10:00:04;7.53;;;3.87;;
846;SDS011;410;48.954;9.474;2024-03-23T10:02:09;7.53;;;3.43;;
846;SDS011;410;48.954;9.474;2024-03-23T10:06:39;6.97;;;3.77;;
846;SDS011;410;48.954;9.474;2024-03-23T10:08:41;6.60;;;3.30;;
846;SDS011;410;48.954;9.474;2024-03-23T10:10:42;8.60;;;3.80;;
846;SDS011;410;48.954;9.474;2024-03-23T10:12:45;5.50;;;3.27;;
846;SDS011;410;48.954;9.474;2024-03-23T10:14:48;8.57;;;4.30;;
846;SDS011;410;48.954;9.474;2024-03-23T10:16:50;6.40;;;3.83;;
846;SDS011;410;48.954;9.474;2024-03-23T10:18:53;5.37;;;3.00;;
846;SDS011;410;48.954;9.474;2024-03-23T10:21:06;5.50;;;3.00;;
846;SDS011;410;48.954;9.474;2024-03-23T10:23:09;4.60;;;2.43;;
846;SDS011;410;48.954;9.474;2024-03-23T10:25:17;4.47;;;2.60;;
846;SDS011;410;48.954;9.474;2024-03-23T10:27:23;4.20;;;2.33;;
846;SDS011;410;48.954;9.474;2024-03-23T10:29:26;4.80;;;2.77;;
846;SDS011;410;48.954;9.474;2024-03-23T10:31:31;5.07;;;2.60;;
846;SDS011;410;48.954;9.474;2024-03-23T10:33:33;5.13;;;2.93;;
846;SDS011;410;48.954;9.474;2024-03-23T10:35:37;5.77;;;3.40;;
846;SDS011;410;48.954;9.474;2024-03-23T10:37:38;6.60;;;3.10;;
846;SDS011;410;48.954;9.474;2024-03-23T10:39:41;6.33;;;3.07;;
846;SDS011;410;48.954;9.474;2024-03-23T10:41:43;4.43;;;2.83;;
846;SDS011;410;48.954;9.474;2024-03-23T10:43:47;9.37;;;3.30;;
846;SDS011;410;48.954;9.474;2024-03-23T10:45:49;6.47;;;3.57;;
846;SDS011;410;48.954;9.474;2024-03-23T10:47:51;5.60;;;3.17;;
846;SDS011;410;48.954;9.474;2024-03-23T10:49:52;6.70;;;3.33;;
846;SDS011;410;48.954;9.474;2024-03-23T10:52:01;7.67;;;3.47;;
846;SDS011;410;48.954;9.474;2024-03-23T10:54:03;6.80;;;2.83;;
846;SDS011;410;48.954;9.474;2024-03-23T10:56:06;5.73;;;2.90;;
846;SDS011;410;48.954;9.474;2024-03-23T10:58:08;5.00;;;3.10;;
846;SDS011;410;48.954;9.474;2024-03-23T11:00:11;4.47;;;2.77;;
846;SDS011;410;48.954;9.474;2024-03-23T11:02:18;6.50;;;3.43;;
846;SDS011;410;48.954;9.474;2024-03-23T11:04:30;5.53;;;3.27;;
846;SDS011;410;48.954;9.474;2024-03-23T11:06:35;5.73;;;3.80;;
846;SDS011;410;48.954;9.474;2024-03-23T11:08:40;7.37;;;3.77;;
846;SDS011;410;48.954;9.474;2024-03-23T11:10:42;6.97;;;2.97;;
846;SDS011;410;48.954;9.474;2024-03-23T11:12:45;6.10;;;3.83;;
846;SDS011;410;48.954;9.474;2024-03-23T11:14:47;7.57;;;4.20;;
846;SDS011;410;48.954;9.474;2024-03-23T11:16:55;14.33;;;3.83;;
846;SDS011;410;48.954;9.474;2024-03-23T11:21:52;10.00;;;5.00;;
846;SDS011;410;48.954;9.474;2024-03-23T11:23:56;8.23;;;4.00;;
846;SDS011;410;48.954;9.474;2024-03-23T11:26:14;7.27;;;3.77;;
846;SDS011;410;48.954;9.474;2024-03-23T11:28:16;7.63;;;3.93;;
846;SDS011;410;48.954;9.474;2024-03-23T11:30:18;6.87;;;3.50;;
846;SDS011;410;48.954;9.474;2024-03-23T11:32:22;9.63;;;4.33;;
846;SDS011;410;48.954;9.474;2024-03-23T11:34:23;8.40;;;3.00;;
846;SDS011;410;48.954;9.474;2024-03-23T11:36:26;9.27;;;3.70;;
846;SDS011;410;48.954;9.474;2024-03-23T11:38:27;8.00;;;3.60;;
846;SDS011;410;48.954;9.474;2024-03-23T11:40:31;5.63;;;3.10;;
846;SDS011;410;48.954;9.474;2024-03-23T11:42:32;3.93;;;2.90;;
846;SDS011;410;48.954;9.474;2024-03-23T11:44:35;5.80;;;3.10;;
846;SDS011;410;48.954;9.474;2024-03-23T11:46:37;6.53;;;3.30;;
846;SDS011;410;48.954;9.474;2024-03-23T11:48:39;6.80;;;3.73;;
846;SDS011;410;48.954;9.474;2024-03-23T11:50:41;5.40;;;3.03;;
846;SDS011;410;48.954;9.474;2024-03-23T11:52:44;5.87;;;3.30;;
846;SDS011;410;48.954;9.474;2024-03-23T11:54:45;6.23;;;3.27;;
846;SDS011;410;48.954;9.474;2024-03-23T11:56:58;4.70;;;3.30;;
846;SDS011;410;48.954;9.474;2024-03-23T11:59:00;6.23;;;4.00;;
846;SDS011;410;48.954;9.474;2024-03-23T12:01:02;6.83;;;3.60;;
846;SDS011;410;48.954;9.474;2024-03-23T12:03:04;6.23;;;3.30;;
846;SDS011;410;48.954;9.474;2024-03-23T12:05:13;5.63;;;3.50;;
846;SDS011;410;48.954;9.474;2024-03-23T12:07:16;7.93;;;4.23;;
846;SDS011;410;48.954;9.474;2024-03-23T12:09:19;5.50;;;3.67;;
846;SDS011;410;48.954;9.474;2024-03-23T12:11:20;5.53;;;3.70;;
846;SDS011;410;48.954;9.474;2024-03-23T12:13:25;6.60;;;3.70;;
846;SDS011;410;48.954;9.474;2024-03-23T12:15:27;8.50;;;3.90;;
846;SDS011;410;48.954;9.474;2024-03-23T12:17:30;7.07;;;4.20;;
846;SDS011;410;48.954;9.474;2024-03-23T12:19:32;5.60;;;3.70;;
846;SDS011;410;48.954;9.474;2024-03-23T12:21:33;10.23;;;4.00;;
846;SDS011;410;48.954;9.474;2024-03-23T12:23:35;9.60;;;4.90;;
846;SDS011;410;48.954;9.474;2024-03-23T12:25:40;6.97;;;3.73;;
846;SDS011;410;48.954;9.474;2024-03-23T12:27:42;5.70;;;3.73;;
846;SDS011;410;48.954;9.474;2024-03-23T12:29:45;10.10;;;4.40;;
846;SDS011;410;48.954;9.474;2024-03-23T12:31:47;4.70;;;3.40;;
846;SDS011;410;48.954;9.474;2024-03-23T12:33:48;5.03;;;3.30;;
846;SDS011;410;48.954;9.474;2024-03-23T12:35:50;7.17;;;3.73;;
846;SDS011;410;48.954;9.474;2024-03-23T12:37:52;6.30;;;3.57;;
846;SDS011;410;48.954;9.474;2024-03-23T12:39:54;5.97;;;3.30;;
846;SDS011;410;48.954;9.474;2024-03-23T12:41:57;7.27;;;3.70;;
846;SDS011;410;48.954;9.474;2024-03-23T12:43:59;5.87;;;2.97;;
846;SDS011;410;48.954;9.474;2024-03-23T12:46:02;6.33;;;3.00;;
846;SDS011;410;48.954;9.474;2024-03-23T12:48:05;6.67;;;2.73;;
846;SDS011;410;48.954;9.474;2024-03-23T12:50:07;5.20;;;2.50;;
846;SDS011;410;48.954;9.474;2024-03-23T12:52:10;6.23;;;2.60;;
846;SDS011;410;48.954;9.474;2024-03-23T12:54:13;5.73;;;2.87;;
846;SDS011;410;48.954;9.474;2024-03-23T12:56:15;3.90;;;2.37;;
846;SDS011;410;48.954;9.474;2024-03-23T12:58:17;7.80;;;3.00;;
846;SDS011;410;48.954;9.474;2024-03-23T13:00:20;5.17;;;3.27;;
846;SDS011;410;48.954;9.474;2024-03-23T13:02:22;7.70;;;2.50;;
846;SDS011;410;48.954;9.474;2024-03-23T13:04:25;5.70;;;2.07;;
846;SDS011;410;48.954;9.474;2024-03-23T13:06:27;4.93;;;2.50;;
846;SDS011;410;48.954;9.474;2024-03-23T13:08:34;4.70;;;2.53;;
846;SDS011;410;48.954;9.474;2024-03-23T13:10:35;7.60;;;2.40;;
846;SDS011;410;48.954;9.474;2024-03-23T13:12:38;4.40;;;1.90;;
846;SDS011;410;48.954;9.474;2024-03-23T13:14:40;7.33;;;3.20;;
846;SDS011;410;48.954;9.474;2024-03-23T13:16:43;3.77;;;2.00;;
846;SDS011;410;48.954;9.474;2024-03-23T13:18:46;5.83;;;2.40;;
846;SDS011;410;48.954;9.474;2024-03-23T13:20:49;7.53;;;3.20;;
846;SDS011;410;48.954;9.474;2024-03-23T13:22:50;6.70;;;3.23;;
846;SDS011;410;48.954;9.474;2024-03-23T13:24:53;8.67;;;2.87;;
846;SDS011;410;48.954;9.474;2024-03-23T13:26:55;4.43;;;2.90;;
846;SDS011;410;48.954;9.474;2024-03-23T13:28:58;7.57;;;2.37;;
846;SDS011;410;48.954;9.474;2024-03-23T13:30:59;4.60;;;2.40;;
846;SDS011;410;48.954;9.474;2024-03-23T13:33:04;7.27;;;2.73;;
846;SDS011;410;48.954;9.474;2024-03-23T13:35:07;9.20;;;2.73;;
846;SDS011;410;48.954;9.474;2024-03-23T13:37:10;8.27;;;2.80;;
846;SDS011;410;48.954;9.474;2024-03-23T13:39:11;6.30;;;2.70;;
846;SDS011;410;48.954;9.474;2024-03-23T13:41:13;5.20;;;2.53;;
846;SDS011;410;48.954;9.474;2024-03-23T13:43:15;7.03;;;3.40;;
846;SDS011;410;48.954;9.474;2024-03-23T13:45:16;5.33;;;2.50;;
846;SDS011;410;48.954;9.474;2024-03-23T13:47:18;5.27;;;2.30;;
846;SDS011;410;48.954;9.474;2024-03-23T13:49:26;7.97;;;2.70;;
846;SDS011;410;48.954;9.474;2024-03-23T13:51:31;5.20;;;2.30;;
846;SDS011;410;48.954;9.474;2024-03-23T13:53:33;6.27;;;2.00;;
846;SDS011;410;48.954;9.474;2024-03-23T13:55:35;8.20;;;2.10;;
846;SDS011;410;48.954;9.474;2024-03-23T13:57:36;5.33;;;1.80;;
846;SDS011;410;48.954;9.474;2024-03-23T13:59:39;9.63;;;3.00;;
846;SDS011;410;48.954;9.474;2024-03-23T14:01:40;5.53;;;1.90;;